PWSweather.com
Personal Weather Stations
Station Observations
79674
AfterstegDE 79674

AfterstegDE 79674

Lat: 47.84344, Lon: 7.92844

Elevation: 809

Station Type: Davis Vantage 2 Aktive

www.wetter-aftersteg.de

High Low Average
Temperature 49.8°F9.9°C 29.8°F-1.2°C 39.0°F3.9°C
Dew Point 39.7°F4.3°C 21.7°F-5.7°C 30.8°F-0.7°C
Winds 6.0 mph 9.7 kmh Calm Calm 1.0 mph S1.6 kmh S
Wind Gusts 11.0 mph17.7 kmh -- 1.0 mph1.6 kmh
Humidity 89% 58% 73%
Pressure 30.26 in1024.7 mb 30.07 in1018.3 mb -
Precipitation 0.14 in3.6 mm - -
Hour Temp Dew Point Humidity Winds Wind Gusts Pressure Precip Precip Rate Daily Precip Total
12:02 AM 31.6°F-0.2°C 22.6°F-5.2°C 69% Calm Calm -- 30.26 in1024.7 mb - 0.00 in0.0 mm 0.00 in0.0 mm
12:07 AM 31.8°F-0.1°C 22.5°F-5.3°C 68% Calm Calm -- 30.26 in1024.7 mb - 0.00 in0.0 mm 0.00 in0.0 mm
12:12 AM 31.8°F-0.1°C 22.5°F-5.3°C 68% Calm Calm -- 30.26 in1024.7 mb - 0.00 in0.0 mm 0.00 in0.0 mm
12:17 AM 31.8°F-0.1°C 22.1°F-5.5°C 67% Calm Calm -- 30.25 in1024.4 mb - 0.00 in0.0 mm 0.00 in0.0 mm
12:22 AM 31.6°F-0.2°C 22.6°F-5.2°C 69% Calm Calm -- 30.26 in1024.7 mb - 0.00 in0.0 mm 0.00 in0.0 mm
12:27 AM 31.5°F-0.3°C 22.5°F-5.3°C 69% Calm Calm -- 30.25 in1024.4 mb - 0.00 in0.0 mm 0.00 in0.0 mm
12:32 AM 31.5°F-0.3°C 22.1°F-5.5°C 68% Calm Calm -- 30.25 in1024.4 mb - 0.00 in0.0 mm 0.00 in0.0 mm
12:37 AM 32.0°F0.0°C 21.9°F-5.6°C 66% Calm Calm -- 30.25 in1024.4 mb - 0.00 in0.0 mm 0.00 in0.0 mm
12:42 AM 31.8°F-0.1°C 22.1°F-5.5°C 67% Calm Calm -- 30.25 in1024.4 mb - 0.00 in0.0 mm 0.00 in0.0 mm
12:47 AM 32.0°F0.0°C 22.3°F-5.4°C 67% Calm Calm -- 30.25 in1024.4 mb - 0.00 in0.0 mm 0.00 in0.0 mm
12:52 AM 32.0°F0.0°C 21.9°F-5.6°C 66% Calm Calm -- 30.25 in1024.4 mb - 0.00 in0.0 mm 0.00 in0.0 mm
12:57 AM 32.0°F0.0°C 22.3°F-5.4°C 67% Calm Calm -- 30.25 in1024.4 mb - 0.00 in0.0 mm 0.00 in0.0 mm
01:02 AM 32.0°F0.0°C 22.3°F-5.4°C 67% Calm Calm -- 30.25 in1024.4 mb - 0.00 in0.0 mm 0.00 in0.0 mm
01:07 AM 31.8°F-0.1°C 22.1°F-5.5°C 67% Calm Calm -- 30.25 in1024.4 mb - 0.00 in0.0 mm 0.00 in0.0 mm
01:12 AM 31.8°F-0.1°C 21.7°F-5.7°C 66% Calm Calm -- 30.25 in1024.4 mb - 0.00 in0.0 mm 0.00 in0.0 mm
01:17 AM 31.8°F-0.1°C 22.1°F-5.5°C 67% Calm Calm -- 30.25 in1024.4 mb - 0.00 in0.0 mm 0.00 in0.0 mm
01:22 AM 31.8°F-0.1°C 22.1°F-5.5°C 67% Calm Calm -- 30.25 in1024.4 mb - 0.00 in0.0 mm 0.00 in0.0 mm
01:27 AM 31.8°F-0.1°C 22.1°F-5.5°C 67% Calm Calm -- 30.25 in1024.4 mb - 0.00 in0.0 mm 0.00 in0.0 mm
01:32 AM 32.0°F0.0°C 22.3°F-5.4°C 67% Calm Calm -- 30.25 in1024.4 mb - 0.00 in0.0 mm 0.00 in0.0 mm
01:37 AM 31.8°F-0.1°C 22.5°F-5.3°C 68% Calm Calm -- 30.25 in1024.4 mb - 0.00 in0.0 mm 0.00 in0.0 mm
01:42 AM 31.6°F-0.2°C 22.6°F-5.2°C 69% Calm Calm -- 30.25 in1024.4 mb - 0.00 in0.0 mm 0.00 in0.0 mm
01:47 AM 31.6°F-0.2°C 22.3°F-5.4°C 68% Calm Calm -- 30.25 in1024.4 mb - 0.00 in0.0 mm 0.00 in0.0 mm
01:52 AM 31.5°F-0.3°C 22.5°F-5.3°C 69% Calm Calm -- 30.25 in1024.4 mb - 0.00 in0.0 mm 0.00 in0.0 mm
01:57 AM 31.6°F-0.2°C 22.6°F-5.2°C 69% Calm Calm -- 30.25 in1024.4 mb - 0.00 in0.0 mm 0.00 in0.0 mm
02:02 AM 31.8°F-0.1°C 22.5°F-5.3°C 68% Calm Calm -- 30.25 in1024.4 mb - 0.00 in0.0 mm 0.00 in0.0 mm
02:07 AM 32.2°F0.1°C 22.8°F-5.1°C 68% Calm Calm -- 30.25 in1024.4 mb - 0.00 in0.0 mm 0.00 in0.0 mm
02:12 AM 32.0°F0.0°C 22.6°F-5.2°C 68% Calm Calm -- 30.24 in1024.0 mb - 0.00 in0.0 mm 0.00 in0.0 mm
02:17 AM 32.0°F0.0°C 22.6°F-5.2°C 68% Calm Calm -- 30.24 in1024.0 mb - 0.00 in0.0 mm 0.00 in0.0 mm
02:22 AM 31.6°F-0.2°C 23.0°F-5.0°C 70% Calm Calm -- 30.24 in1024.0 mb - 0.00 in0.0 mm 0.00 in0.0 mm
02:27 AM 31.6°F-0.2°C 23.0°F-5.0°C 70% Calm Calm -- 30.24 in1024.0 mb - 0.00 in0.0 mm 0.00 in0.0 mm
02:32 AM 31.6°F-0.2°C 22.6°F-5.2°C 69% Calm Calm -- 30.24 in1024.0 mb - 0.00 in0.0 mm 0.00 in0.0 mm
02:37 AM 31.5°F-0.3°C 22.8°F-5.1°C 70% Calm Calm -- 30.24 in1024.0 mb - 0.00 in0.0 mm 0.00 in0.0 mm
02:42 AM 31.5°F-0.3°C 22.8°F-5.1°C 70% Calm Calm -- 30.25 in1024.4 mb - 0.00 in0.0 mm 0.00 in0.0 mm
02:47 AM 31.5°F-0.3°C 22.5°F-5.3°C 69% Calm Calm -- 30.25 in1024.4 mb - 0.00 in0.0 mm 0.00 in0.0 mm
02:52 AM 31.5°F-0.3°C 22.8°F-5.1°C 70% Calm Calm -- 30.25 in1024.4 mb - 0.00 in0.0 mm 0.00 in0.0 mm
02:57 AM 31.6°F-0.2°C 22.6°F-5.2°C 69% Calm Calm -- 30.25 in1024.4 mb - 0.00 in0.0 mm 0.00 in0.0 mm
03:02 AM 31.5°F-0.3°C 22.5°F-5.3°C 69% Calm Calm -- 30.25 in1024.4 mb - 0.00 in0.0 mm 0.00 in0.0 mm
03:07 AM 31.5°F-0.3°C 22.5°F-5.3°C 69% Calm Calm -- 30.25 in1024.4 mb - 0.00 in0.0 mm 0.00 in0.0 mm
03:12 AM 31.5°F-0.3°C 22.5°F-5.3°C 69% Calm Calm -- 30.25 in1024.4 mb - 0.00 in0.0 mm 0.00 in0.0 mm
03:17 AM 31.6°F-0.2°C 22.6°F-5.2°C 69% Calm Calm -- 30.25 in1024.4 mb - 0.00 in0.0 mm 0.00 in0.0 mm
03:22 AM 31.5°F-0.3°C 22.5°F-5.3°C 69% Calm Calm -- 30.25 in1024.4 mb - 0.00 in0.0 mm 0.00 in0.0 mm
03:27 AM 31.6°F-0.2°C 22.6°F-5.2°C 69% Calm Calm -- 30.25 in1024.4 mb - 0.00 in0.0 mm 0.00 in0.0 mm
03:32 AM 31.5°F-0.3°C 22.5°F-5.3°C 69% Calm Calm -- 30.24 in1024.0 mb - 0.00 in0.0 mm 0.00 in0.0 mm
03:37 AM 31.5°F-0.3°C 22.5°F-5.3°C 69% Calm Calm -- 30.24 in1024.0 mb - 0.00 in0.0 mm 0.00 in0.0 mm
03:42 AM 31.5°F-0.3°C 22.5°F-5.3°C 69% Calm Calm -- 30.24 in1024.0 mb - 0.00 in0.0 mm 0.00 in0.0 mm
03:47 AM 30.9°F-0.6°C 22.3°F-5.4°C 70% Calm Calm -- 30.25 in1024.4 mb - 0.00 in0.0 mm 0.00 in0.0 mm
03:52 AM 30.9°F-0.6°C 22.6°F-5.2°C 71% Calm Calm -- 30.24 in1024.0 mb - 0.00 in0.0 mm 0.00 in0.0 mm
03:57 AM 30.7°F-0.7°C 22.8°F-5.1°C 72% Calm Calm -- 30.24 in1024.0 mb - 0.00 in0.0 mm 0.00 in0.0 mm
04:02 AM 30.6°F-0.8°C 22.6°F-5.2°C 72% Calm Calm -- 30.24 in1024.0 mb - 0.00 in0.0 mm 0.00 in0.0 mm
04:07 AM 30.6°F-0.8°C 22.6°F-5.2°C 72% Calm Calm -- 30.24 in1024.0 mb - 0.00 in0.0 mm 0.00 in0.0 mm
04:12 AM 30.6°F-0.8°C 22.6°F-5.2°C 72% Calm Calm -- 30.24 in1024.0 mb - 0.00 in0.0 mm 0.00 in0.0 mm
04:17 AM 30.7°F-0.7°C 22.8°F-5.1°C 72% Calm Calm -- 30.24 in1024.0 mb - 0.00 in0.0 mm 0.00 in0.0 mm
04:22 AM 30.6°F-0.8°C 22.6°F-5.2°C 72% Calm Calm -- 30.24 in1024.0 mb - 0.00 in0.0 mm 0.00 in0.0 mm
04:27 AM 30.7°F-0.7°C 23.2°F-4.9°C 73% Calm Calm -- 30.24 in1024.0 mb - 0.00 in0.0 mm 0.00 in0.0 mm
04:32 AM 30.7°F-0.7°C 22.8°F-5.1°C 72% Calm Calm -- 30.25 in1024.4 mb - 0.00 in0.0 mm 0.00 in0.0 mm
04:37 AM 30.7°F-0.7°C 22.8°F-5.1°C 72% Calm Calm -- 30.24 in1024.0 mb - 0.00 in0.0 mm 0.00 in0.0 mm
04:42 AM 30.9°F-0.6°C 23.4°F-4.8°C 73% Calm Calm -- 30.24 in1024.0 mb - 0.00 in0.0 mm 0.00 in0.0 mm
04:47 AM 31.1°F-0.5°C 23.5°F-4.7°C 73% Calm Calm -- 30.24 in1024.0 mb - 0.00 in0.0 mm 0.00 in0.0 mm
04:52 AM 31.5°F-0.3°C 23.2°F-4.9°C 71% Calm Calm -- 30.24 in1024.0 mb - 0.00 in0.0 mm 0.00 in0.0 mm
04:57 AM 31.5°F-0.3°C 23.9°F-4.5°C 73% Calm Calm -- 30.24 in1024.0 mb - 0.00 in0.0 mm 0.00 in0.0 mm
05:02 AM 31.3°F-0.4°C 23.4°F-4.8°C 72% Calm Calm -- 30.24 in1024.0 mb - 0.00 in0.0 mm 0.00 in0.0 mm
05:07 AM 30.7°F-0.7°C 23.4°F-4.8°C 74% Calm Calm -- 30.24 in1024.0 mb - 0.00 in0.0 mm 0.00 in0.0 mm
05:12 AM 30.9°F-0.6°C 23.9°F-4.5°C 75% Calm Calm -- 30.24 in1024.0 mb - 0.00 in0.0 mm 0.00 in0.0 mm
05:17 AM 30.9°F-0.6°C 23.5°F-4.7°C 74% Calm Calm -- 30.24 in1024.0 mb - 0.00 in0.0 mm 0.00 in0.0 mm
05:22 AM 31.1°F-0.5°C 23.7°F-4.6°C 74% Calm Calm -- 30.24 in1024.0 mb - 0.00 in0.0 mm 0.00 in0.0 mm
05:27 AM 30.9°F-0.6°C 23.9°F-4.5°C 75% Calm Calm -- 30.24 in1024.0 mb - 0.00 in0.0 mm 0.00 in0.0 mm
05:32 AM 30.7°F-0.7°C 23.7°F-4.6°C 75% Calm Calm -- 30.24 in1024.0 mb - 0.00 in0.0 mm 0.00 in0.0 mm
05:37 AM 30.7°F-0.7°C 23.7°F-4.6°C 75% Calm Calm -- 30.24 in1024.0 mb - 0.00 in0.0 mm 0.00 in0.0 mm
05:42 AM 30.6°F-0.8°C 23.5°F-4.7°C 75% Calm Calm -- 30.24 in1024.0 mb - 0.00 in0.0 mm 0.00 in0.0 mm
05:47 AM 30.4°F-0.9°C 23.7°F-4.6°C 76% Calm Calm -- 30.24 in1024.0 mb - 0.00 in0.0 mm 0.00 in0.0 mm
05:52 AM 30.6°F-0.8°C 24.3°F-4.3°C 77% Calm Calm -- 30.24 in1024.0 mb - 0.00 in0.0 mm 0.00 in0.0 mm
05:57 AM 30.6°F-0.8°C 24.3°F-4.3°C 77% Calm Calm -- 30.24 in1024.0 mb - 0.00 in0.0 mm 0.00 in0.0 mm
06:02 AM 30.7°F-0.7°C 24.6°F-4.1°C 78% Calm Calm -- 30.24 in1024.0 mb - 0.00 in0.0 mm 0.00 in0.0 mm
06:07 AM 30.9°F-0.6°C 25.2°F-3.8°C 79% Calm Calm -- 30.24 in1024.0 mb - 0.00 in0.0 mm 0.00 in0.0 mm
06:12 AM 30.4°F-0.9°C 24.6°F-4.1°C 79% Calm Calm -- 30.24 in1024.0 mb - 0.00 in0.0 mm 0.00 in0.0 mm
06:17 AM 30.0°F-1.1°C 24.3°F-4.3°C 79% Calm Calm -- 30.24 in1024.0 mb - 0.00 in0.0 mm 0.00 in0.0 mm
06:22 AM 30.0°F-1.1°C 24.6°F-4.1°C 80% Calm Calm -- 30.24 in1024.0 mb - 0.00 in0.0 mm 0.00 in0.0 mm
06:27 AM 30.4°F-0.9°C 25.3°F-3.7°C 81% Calm Calm -- 30.24 in1024.0 mb - 0.00 in0.0 mm 0.00 in0.0 mm
06:32 AM 30.6°F-0.8°C 25.7°F-3.5°C 82% Calm Calm -- 30.24 in1024.0 mb - 0.00 in0.0 mm 0.00 in0.0 mm
06:37 AM 30.4°F-0.9°C 25.3°F-3.7°C 81% Calm Calm -- 30.24 in1024.0 mb - 0.00 in0.0 mm 0.00 in0.0 mm
06:42 AM 30.4°F-0.9°C 25.5°F-3.6°C 82% Calm Calm -- 30.24 in1024.0 mb - 0.00 in0.0 mm 0.00 in0.0 mm
06:47 AM 30.4°F-0.9°C 25.5°F-3.6°C 82% Calm Calm -- 30.24 in1024.0 mb - 0.00 in0.0 mm 0.00 in0.0 mm
06:52 AM 30.4°F-0.9°C 25.5°F-3.6°C 82% Calm Calm -- 30.24 in1024.0 mb - 0.00 in0.0 mm 0.00 in0.0 mm
06:57 AM 30.4°F-0.9°C 25.5°F-3.6°C 82% Calm Calm -- 30.24 in1024.0 mb - 0.00 in0.0 mm 0.00 in0.0 mm
07:02 AM 30.4°F-0.9°C 25.9°F-3.4°C 83% Calm Calm -- 30.24 in1024.0 mb - 0.00 in0.0 mm 0.00 in0.0 mm
07:07 AM 30.0°F-1.1°C 25.2°F-3.8°C 82% Calm Calm -- 30.24 in1024.0 mb - 0.00 in0.0 mm 0.00 in0.0 mm
07:12 AM 29.8°F-1.2°C 25.0°F-3.9°C 82% Calm Calm -- 30.24 in1024.0 mb - 0.00 in0.0 mm 0.00 in0.0 mm
07:17 AM 29.8°F-1.2°C 25.3°F-3.7°C 83% Calm Calm -- 30.24 in1024.0 mb - 0.00 in0.0 mm 0.00 in0.0 mm
07:22 AM 30.0°F-1.1°C 25.5°F-3.6°C 83% Calm Calm -- 30.24 in1024.0 mb - 0.00 in0.0 mm 0.00 in0.0 mm
07:27 AM 30.0°F-1.1°C 25.5°F-3.6°C 83% Calm Calm -- 30.24 in1024.0 mb - 0.00 in0.0 mm 0.00 in0.0 mm
07:32 AM 30.0°F-1.1°C 25.5°F-3.6°C 83% Calm Calm -- 30.24 in1024.0 mb - 0.00 in0.0 mm 0.00 in0.0 mm
07:37 AM 30.4°F-0.9°C 25.9°F-3.4°C 83% Calm Calm -- 30.24 in1024.0 mb - 0.00 in0.0 mm 0.00 in0.0 mm
07:42 AM 30.4°F-0.9°C 25.9°F-3.4°C 83% Calm Calm -- 30.24 in1024.0 mb - 0.00 in0.0 mm 0.00 in0.0 mm
07:47 AM 30.4°F-0.9°C 25.9°F-3.4°C 83% Calm Calm -- 30.24 in1024.0 mb - 0.00 in0.0 mm 0.00 in0.0 mm
07:52 AM 30.4°F-0.9°C 25.9°F-3.4°C 83% Calm Calm -- 30.24 in1024.0 mb - 0.00 in0.0 mm 0.00 in0.0 mm
07:57 AM 30.6°F-0.8°C 26.2°F-3.2°C 84% Calm Calm -- 30.24 in1024.0 mb - 0.00 in0.0 mm 0.00 in0.0 mm
08:02 AM 30.4°F-0.9°C 25.9°F-3.4°C 83% Calm Calm -- 30.24 in1024.0 mb - 0.00 in0.0 mm 0.00 in0.0 mm
08:07 AM 30.2°F-1.0°C 25.7°F-3.5°C 83% Calm Calm -- 30.24 in1024.0 mb - 0.00 in0.0 mm 0.00 in0.0 mm
08:12 AM 30.2°F-1.0°C 25.9°F-3.4°C 84% Calm Calm -- 30.24 in1024.0 mb - 0.00 in0.0 mm 0.00 in0.0 mm
08:17 AM 30.2°F-1.0°C 25.7°F-3.5°C 83% Calm Calm -- 30.24 in1024.0 mb - 0.00 in0.0 mm 0.00 in0.0 mm
08:22 AM 30.0°F-1.1°C 25.7°F-3.5°C 84% Calm Calm -- 30.24 in1024.0 mb - 0.00 in0.0 mm 0.00 in0.0 mm
08:27 AM 29.8°F-1.2°C 25.5°F-3.6°C 84% Calm Calm -- 30.24 in1024.0 mb - 0.00 in0.0 mm 0.00 in0.0 mm
08:32 AM 30.0°F-1.1°C 25.7°F-3.5°C 84% Calm Calm -- 30.24 in1024.0 mb - 0.00 in0.0 mm 0.00 in0.0 mm
08:37 AM 30.4°F-0.9°C 26.4°F-3.1°C 85% Calm Calm -- 30.24 in1024.0 mb - 0.00 in0.0 mm 0.00 in0.0 mm
08:42 AM 30.4°F-0.9°C 26.1°F-3.3°C 84% Calm Calm -- 30.24 in1024.0 mb - 0.00 in0.0 mm 0.00 in0.0 mm
08:47 AM 30.6°F-0.8°C 26.2°F-3.2°C 84% Calm Calm -- 30.24 in1024.0 mb - 0.00 in0.0 mm 0.00 in0.0 mm
08:52 AM 30.9°F-0.6°C 27.0°F-2.8°C 85% Calm Calm -- 30.24 in1024.0 mb - 0.00 in0.0 mm 0.00 in0.0 mm
08:57 AM 31.6°F-0.2°C 27.3°F-2.6°C 84% Calm Calm -- 30.24 in1024.0 mb - 0.00 in0.0 mm 0.00 in0.0 mm
09:02 AM 32.4°F0.2°C 27.9°F-2.3°C 83% Calm Calm -- 30.24 in1024.0 mb - 0.00 in0.0 mm 0.00 in0.0 mm
09:07 AM 32.7°F0.4°C 27.9°F-2.3°C 82% Calm Calm -- 30.24 in1024.0 mb - 0.00 in0.0 mm 0.00 in0.0 mm
09:12 AM 34.0°F1.1°C 28.4°F-2.0°C 80% Calm Calm -- 30.25 in1024.4 mb - 0.00 in0.0 mm 0.00 in0.0 mm
09:17 AM 34.2°F1.2°C 28.9°F-1.7°C 81% Calm Calm -- 30.24 in1024.0 mb - 0.00 in0.0 mm 0.00 in0.0 mm
09:22 AM 34.3°F1.3°C 28.6°F-1.9°C 79% Calm Calm -- 30.24 in1024.0 mb - 0.00 in0.0 mm 0.00 in0.0 mm
09:27 AM 35.1°F1.7°C 29.8°F-1.2°C 81% Calm Calm -- 30.25 in1024.4 mb - 0.00 in0.0 mm 0.00 in0.0 mm
09:32 AM 36.1°F2.3°C 30.2°F-1.0°C 79% Calm Calm -- 30.25 in1024.4 mb - 0.00 in0.0 mm 0.00 in0.0 mm
09:37 AM 35.4°F1.9°C 29.3°F-1.5°C 78% Calm Calm -- 30.25 in1024.4 mb - 0.00 in0.0 mm 0.00 in0.0 mm
09:42 AM 36.9°F2.7°C 30.4°F-0.9°C 77% Calm Calm -- 30.24 in1024.0 mb - 0.00 in0.0 mm 0.00 in0.0 mm
09:47 AM 36.7°F2.6°C 30.2°F-1.0°C 77% Calm Calm -- 30.25 in1024.4 mb - 0.00 in0.0 mm 0.00 in0.0 mm
09:52 AM 37.8°F3.2°C 30.9°F-0.6°C 76% Calm Calm -- 30.24 in1024.0 mb - 0.00 in0.0 mm 0.00 in0.0 mm
09:57 AM 37.8°F3.2°C 30.9°F-0.6°C 76% Calm Calm -- 30.24 in1024.0 mb - 0.00 in0.0 mm 0.00 in0.0 mm
10:02 AM 38.5°F3.6°C 31.8°F-0.1°C 77% Calm Calm -- 30.24 in1024.0 mb - 0.00 in0.0 mm 0.00 in0.0 mm
10:07 AM 38.5°F3.6°C 31.6°F-0.2°C 76% Calm Calm -- 30.24 in1024.0 mb - 0.00 in0.0 mm 0.00 in0.0 mm
10:12 AM 38.5°F3.6°C 31.3°F-0.4°C 75% Calm Calm -- 30.24 in1024.0 mb - 0.00 in0.0 mm 0.00 in0.0 mm
10:17 AM 40.1°F4.5°C 34.2°F1.2°C 79% Calm Calm -- 30.24 in1024.0 mb - 0.00 in0.0 mm 0.00 in0.0 mm
10:22 AM 40.5°F4.7°C 33.1°F0.6°C 75% Calm Calm -- 30.24 in1024.0 mb - 0.00 in0.0 mm 0.00 in0.0 mm
10:27 AM 41.7°F5.4°C 33.6°F0.9°C 73% Calm Calm -- 30.24 in1024.0 mb - 0.00 in0.0 mm 0.00 in0.0 mm
10:32 AM 41.5°F5.3°C 33.3°F0.7°C 72% Calm Calm 0.9 mph1.4 kmh 30.23 in1023.7 mb - 0.00 in0.0 mm 0.00 in0.0 mm
10:37 AM 42.1°F5.6°C 34.0°F1.1°C 73% Calm Calm -- 30.23 in1023.7 mb - 0.00 in0.0 mm 0.00 in0.0 mm
10:42 AM 42.4°F5.8°C 34.3°F1.3°C 73% Calm Calm -- 30.23 in1023.7 mb - 0.00 in0.0 mm 0.00 in0.0 mm
10:47 AM 42.4°F5.8°C 34.0°F1.1°C 72% Calm Calm -- 30.23 in1023.7 mb - 0.00 in0.0 mm 0.00 in0.0 mm
10:52 AM 43.0°F6.1°C 35.2°F1.8°C 74% Calm Calm -- 30.23 in1023.7 mb - 0.00 in0.0 mm 0.00 in0.0 mm
10:57 AM 43.2°F6.2°C 34.3°F1.3°C 71% Calm Calm -- 30.23 in1023.7 mb - 0.00 in0.0 mm 0.00 in0.0 mm
11:02 AM 43.5°F6.4°C 34.7°F1.5°C 71% Calm Calm 2.9 mph4.7 kmh 30.22 in1023.4 mb - 0.00 in0.0 mm 0.00 in0.0 mm
11:07 AM 43.5°F6.4°C 34.7°F1.5°C 71% 0.9 mph W1.4 kmh W -- 30.22 in1023.4 mb - 0.00 in0.0 mm 0.00 in0.0 mm
11:12 AM 44.1°F6.7°C 34.9°F1.6°C 70% 0.9 mph SW1.4 kmh SW -- 30.22 in1023.4 mb - 0.00 in0.0 mm 0.00 in0.0 mm
11:17 AM 44.1°F6.7°C 34.9°F1.6°C 70% Calm Calm -- 30.22 in1023.4 mb - 0.00 in0.0 mm 0.00 in0.0 mm
11:22 AM 44.6°F7.0°C 35.1°F1.7°C 69% Calm Calm -- 30.22 in1023.4 mb - 0.00 in0.0 mm 0.00 in0.0 mm
11:27 AM 45.3°F7.4°C 35.1°F1.7°C 67% 0.9 mph SSE1.4 kmh SSE 2.9 mph4.7 kmh 30.21 in1023.0 mb - 0.00 in0.0 mm 0.00 in0.0 mm
11:32 AM 46.0°F7.8°C 35.2°F1.8°C 66% 2.9 mph SE4.7 kmh SE 2.0 mph3.2 kmh 30.21 in1023.0 mb - 0.00 in0.0 mm 0.00 in0.0 mm
11:37 AM 46.8°F8.2°C 35.6°F2.0°C 65% 4.0 mph S6.4 kmh S 4.9 mph7.9 kmh 30.21 in1023.0 mb - 0.00 in0.0 mm 0.00 in0.0 mm
11:42 AM 46.2°F7.9°C 34.7°F1.5°C 64% 4.0 mph S6.4 kmh S 4.0 mph6.4 kmh 30.21 in1023.0 mb - 0.00 in0.0 mm 0.00 in0.0 mm
11:47 AM 45.9°F7.7°C 34.3°F1.3°C 64% 4.0 mph S6.4 kmh S 2.9 mph4.7 kmh 30.20 in1022.7 mb - 0.00 in0.0 mm 0.00 in0.0 mm
11:52 AM 46.9°F8.3°C 35.4°F1.9°C 64% 4.0 mph SE6.4 kmh SE 2.0 mph3.2 kmh 30.20 in1022.7 mb - 0.00 in0.0 mm 0.00 in0.0 mm
11:57 AM 46.6°F8.1°C 34.3°F1.3°C 62% 2.9 mph ESE4.7 kmh ESE 2.9 mph4.7 kmh 30.20 in1022.7 mb - 0.00 in0.0 mm 0.00 in0.0 mm
12:02 PM 46.6°F8.1°C 34.3°F1.3°C 62% 2.9 mph S4.7 kmh S -- 30.20 in1022.7 mb - 0.00 in0.0 mm 0.00 in0.0 mm
12:07 PM 47.1°F8.4°C 35.2°F1.8°C 63% 2.0 mph SE3.2 kmh SE 4.9 mph7.9 kmh 30.20 in1022.7 mb - 0.00 in0.0 mm 0.00 in0.0 mm
12:12 PM 47.5°F8.6°C 34.7°F1.5°C 61% 2.9 mph SSE4.7 kmh SSE 2.9 mph4.7 kmh 30.19 in1022.4 mb - 0.00 in0.0 mm 0.00 in0.0 mm
12:17 PM 47.8°F8.8°C 35.1°F1.7°C 61% 4.9 mph SSE7.9 kmh SSE 2.9 mph4.7 kmh 30.19 in1022.4 mb - 0.00 in0.0 mm 0.00 in0.0 mm
12:22 PM 48.0°F8.9°C 35.2°F1.8°C 61% 4.0 mph SSE6.4 kmh SSE 4.9 mph7.9 kmh 30.19 in1022.4 mb - 0.00 in0.0 mm 0.00 in0.0 mm
12:27 PM 47.8°F8.8°C 35.4°F1.9°C 62% 4.0 mph SSE6.4 kmh SSE 6.0 mph9.7 kmh 30.19 in1022.4 mb - 0.00 in0.0 mm 0.00 in0.0 mm
12:32 PM 48.4°F9.1°C 35.6°F2.0°C 61% 4.9 mph S7.9 kmh S 10.1 mph16.3 kmh 30.19 in1022.4 mb - 0.00 in0.0 mm 0.00 in0.0 mm
12:37 PM 47.8°F8.8°C 35.1°F1.7°C 61% 6.0 mph SSE9.7 kmh SSE 2.9 mph4.7 kmh 30.18 in1022.0 mb - 0.00 in0.0 mm 0.00 in0.0 mm
12:42 PM 48.0°F8.9°C 35.2°F1.8°C 61% 4.9 mph S7.9 kmh S 4.9 mph7.9 kmh 30.18 in1022.0 mb - 0.00 in0.0 mm 0.00 in0.0 mm
12:47 PM 48.4°F9.1°C 35.6°F2.0°C 61% 4.9 mph SSE7.9 kmh SSE 6.0 mph9.7 kmh 30.18 in1022.0 mb - 0.00 in0.0 mm 0.00 in0.0 mm
12:52 PM 48.6°F9.2°C 35.8°F2.1°C 61% 4.0 mph ESE6.4 kmh ESE 4.9 mph7.9 kmh 30.18 in1022.0 mb - 0.00 in0.0 mm 0.00 in0.0 mm
12:57 PM 48.7°F9.3°C 35.4°F1.9°C 60% 4.0 mph SE6.4 kmh SE 4.0 mph6.4 kmh 30.18 in1022.0 mb - 0.00 in0.0 mm 0.00 in0.0 mm
01:02 PM 49.3°F9.6°C 35.6°F2.0°C 59% 4.0 mph SE6.4 kmh SE 2.0 mph3.2 kmh 30.18 in1022.0 mb - 0.00 in0.0 mm 0.00 in0.0 mm
01:07 PM 49.3°F9.6°C 35.1°F1.7°C 58% 4.9 mph SSE7.9 kmh SSE 2.9 mph4.7 kmh 30.17 in1021.7 mb - 0.00 in0.0 mm 0.00 in0.0 mm
01:12 PM 48.6°F9.2°C 34.9°F1.6°C 59% 4.0 mph SSE6.4 kmh SSE 4.9 mph7.9 kmh 30.17 in1021.7 mb - 0.00 in0.0 mm 0.00 in0.0 mm
01:17 PM 48.6°F9.2°C 35.2°F1.8°C 60% 4.0 mph S6.4 kmh S 2.9 mph4.7 kmh 30.17 in1021.7 mb - 0.00 in0.0 mm 0.00 in0.0 mm
01:22 PM 48.9°F9.4°C 35.2°F1.8°C 59% 4.0 mph S6.4 kmh S 2.0 mph3.2 kmh 30.17 in1021.7 mb - 0.00 in0.0 mm 0.00 in0.0 mm
01:27 PM 49.1°F9.5°C 35.4°F1.9°C 59% 2.9 mph SSW4.7 kmh SSW -- 30.17 in1021.7 mb - 0.00 in0.0 mm 0.00 in0.0 mm
01:32 PM 49.8°F9.9°C 35.6°F2.0°C 58% 0.9 mph SW1.4 kmh SW -- 30.17 in1021.7 mb - 0.00 in0.0 mm 0.00 in0.0 mm
01:37 PM 48.9°F9.4°C 35.2°F1.8°C 59% 0.9 mph S1.4 kmh S 6.0 mph9.7 kmh 30.16 in1021.3 mb - 0.00 in0.0 mm 0.00 in0.0 mm
01:42 PM 48.7°F9.3°C 34.7°F1.5°C 58% 2.0 mph SSE3.2 kmh SSE 4.0 mph6.4 kmh 30.16 in1021.3 mb - 0.00 in0.0 mm 0.00 in0.0 mm
01:47 PM 48.9°F9.4°C 35.6°F2.0°C 60% 2.0 mph SE3.2 kmh SE -- 30.16 in1021.3 mb - 0.00 in0.0 mm 0.00 in0.0 mm
01:52 PM 48.6°F9.2°C 35.2°F1.8°C 60% 2.0 mph SE3.2 kmh SE 0.9 mph1.4 kmh 30.15 in1021.0 mb - 0.00 in0.0 mm 0.00 in0.0 mm
01:57 PM 48.9°F9.4°C 34.9°F1.6°C 58% 2.9 mph S4.7 kmh S 6.9 mph11.1 kmh 30.15 in1021.0 mb - 0.00 in0.0 mm 0.00 in0.0 mm
02:02 PM 48.4°F9.1°C 34.7°F1.5°C 59% 4.0 mph NW6.4 kmh NW -- 30.15 in1021.0 mb - 0.00 in0.0 mm 0.00 in0.0 mm
02:07 PM 48.2°F9.0°C 34.5°F1.4°C 59% 2.0 mph S3.2 kmh S 2.0 mph3.2 kmh 30.15 in1021.0 mb - 0.00 in0.0 mm 0.00 in0.0 mm
02:12 PM 48.6°F9.2°C 34.5°F1.4°C 58% 0.9 mph SE1.4 kmh SE -- 30.15 in1021.0 mb - 0.00 in0.0 mm 0.00 in0.0 mm
02:17 PM 48.6°F9.2°C 34.5°F1.4°C 58% 0.9 mph S1.4 kmh S 2.9 mph4.7 kmh 30.15 in1021.0 mb - 0.00 in0.0 mm 0.00 in0.0 mm
02:22 PM 48.0°F8.9°C 34.3°F1.3°C 59% 0.9 mph S1.4 kmh S -- 30.15 in1021.0 mb - 0.00 in0.0 mm 0.00 in0.0 mm
02:27 PM 46.9°F8.3°C 34.5°F1.4°C 62% Calm Calm 2.9 mph4.7 kmh 30.15 in1021.0 mb - 0.00 in0.0 mm 0.00 in0.0 mm
02:32 PM 47.7°F8.7°C 34.5°F1.4°C 60% Calm Calm 2.9 mph4.7 kmh 30.14 in1020.7 mb - 0.00 in0.0 mm 0.00 in0.0 mm
02:37 PM 46.4°F8.0°C 33.6°F0.9°C 61% 0.9 mph S1.4 kmh S 2.0 mph3.2 kmh 30.14 in1020.7 mb - 0.00 in0.0 mm 0.00 in0.0 mm
02:42 PM 46.2°F7.9°C 33.4°F0.8°C 61% 0.9 mph S1.4 kmh S -- 30.14 in1020.7 mb - 0.00 in0.0 mm 0.00 in0.0 mm
02:47 PM 45.1°F7.3°C 33.6°F0.9°C 64% 0.9 mph WNW1.4 kmh WNW -- 30.14 in1020.7 mb - 0.00 in0.0 mm 0.00 in0.0 mm
02:52 PM 45.0°F7.2°C 34.0°F1.1°C 65% Calm Calm -- 30.14 in1020.7 mb - 0.00 in0.0 mm 0.00 in0.0 mm
02:57 PM 44.2°F6.8°C 34.0°F1.1°C 67% Calm Calm -- 30.14 in1020.7 mb - 0.00 in0.0 mm 0.00 in0.0 mm
03:02 PM 45.1°F7.3°C 33.6°F0.9°C 64% Calm Calm -- 30.14 in1020.7 mb - 0.00 in0.0 mm 0.00 in0.0 mm
03:07 PM 45.5°F7.5°C 33.6°F0.9°C 63% Calm Calm -- 30.14 in1020.7 mb - 0.00 in0.0 mm 0.00 in0.0 mm
03:12 PM 45.0°F7.2°C 34.0°F1.1°C 65% Calm Calm -- 30.14 in1020.7 mb - 0.00 in0.0 mm 0.00 in0.0 mm
03:17 PM 45.5°F7.5°C 33.6°F0.9°C 63% 0.9 mph SSW1.4 kmh SSW -- 30.14 in1020.7 mb - 0.00 in0.0 mm 0.00 in0.0 mm
03:22 PM 45.3°F7.4°C 33.8°F1.0°C 64% Calm Calm 4.9 mph7.9 kmh 30.14 in1020.7 mb - 0.00 in0.0 mm 0.00 in0.0 mm
03:27 PM 45.9°F7.7°C 33.6°F0.9°C 62% 0.9 mph SSE1.4 kmh SSE 0.9 mph1.4 kmh 30.14 in1020.7 mb - 0.00 in0.0 mm 0.00 in0.0 mm
03:32 PM 45.7°F7.6°C 33.8°F1.0°C 63% 2.0 mph SSE3.2 kmh SSE -- 30.14 in1020.7 mb - 0.00 in0.0 mm 0.00 in0.0 mm
03:37 PM 45.9°F7.7°C 33.6°F0.9°C 62% Calm Calm -- 30.14 in1020.7 mb - 0.00 in0.0 mm 0.00 in0.0 mm
03:42 PM 45.9°F7.7°C 34.0°F1.1°C 63% 0.9 mph SE1.4 kmh SE 0.9 mph1.4 kmh 30.13 in1020.3 mb - 0.00 in0.0 mm 0.00 in0.0 mm
03:47 PM 45.9°F7.7°C 33.6°F0.9°C 62% 0.9 mph NW1.4 kmh NW -- 30.14 in1020.7 mb - 0.00 in0.0 mm 0.00 in0.0 mm
03:52 PM 45.3°F7.4°C 33.8°F1.0°C 64% 2.0 mph N3.2 kmh N 0.9 mph1.4 kmh 30.13 in1020.3 mb - 0.00 in0.0 mm 0.00 in0.0 mm
03:57 PM 45.0°F7.2°C 33.4°F0.8°C 64% 4.9 mph NNW7.9 kmh NNW 6.0 mph9.7 kmh 30.13 in1020.3 mb - 0.00 in0.0 mm 0.00 in0.0 mm
04:02 PM 44.8°F7.1°C 33.8°F1.0°C 65% 6.0 mph NNE9.7 kmh NNE 2.0 mph3.2 kmh 30.13 in1020.3 mb - 0.00 in0.0 mm 0.00 in0.0 mm
04:07 PM 44.8°F7.1°C 33.8°F1.0°C 65% 4.0 mph E6.4 kmh E -- 30.13 in1020.3 mb - 0.00 in0.0 mm 0.00 in0.0 mm
04:12 PM 44.8°F7.1°C 33.8°F1.0°C 65% 2.9 mph ENE4.7 kmh ENE 2.9 mph4.7 kmh 30.14 in1020.7 mb - 0.00 in0.0 mm 0.00 in0.0 mm
04:17 PM 44.6°F7.0°C 33.3°F0.7°C 64% 2.0 mph WSW3.2 kmh WSW -- 30.13 in1020.3 mb - 0.00 in0.0 mm 0.00 in0.0 mm
04:22 PM 44.4°F6.9°C 33.4°F0.8°C 65% 2.0 mph E3.2 kmh E 2.9 mph4.7 kmh 30.13 in1020.3 mb - 0.00 in0.0 mm 0.00 in0.0 mm
04:27 PM 44.2°F6.8°C 33.6°F0.9°C 66% 2.0 mph S3.2 kmh S 0.9 mph1.4 kmh 30.13 in1020.3 mb - 0.00 in0.0 mm 0.00 in0.0 mm
04:32 PM 43.9°F6.6°C 33.6°F0.9°C 67% 0.9 mph ESE1.4 kmh ESE -- 30.13 in1020.3 mb - 0.00 in0.0 mm 0.00 in0.0 mm
04:37 PM 43.5°F6.4°C 33.3°F0.7°C 67% Calm Calm -- 30.13 in1020.3 mb - 0.00 in0.0 mm 0.00 in0.0 mm
04:42 PM 43.3°F6.3°C 33.4°F0.8°C 68% Calm Calm -- 30.13 in1020.3 mb - 0.00 in0.0 mm 0.00 in0.0 mm
04:47 PM 43.2°F6.2°C 33.3°F0.7°C 68% Calm Calm -- 30.13 in1020.3 mb - 0.00 in0.0 mm 0.00 in0.0 mm
04:52 PM 43.0°F6.1°C 33.1°F0.6°C 68% Calm Calm -- 30.13 in1020.3 mb - 0.00 in0.0 mm 0.00 in0.0 mm
04:57 PM 42.4°F5.8°C 33.1°F0.6°C 69% Calm Calm -- 30.12 in1020.0 mb - 0.00 in0.0 mm 0.00 in0.0 mm
05:02 PM 41.9°F5.5°C 32.9°F0.5°C 70% Calm Calm -- 30.12 in1020.0 mb - 0.00 in0.0 mm 0.00 in0.0 mm
05:07 PM 41.5°F5.3°C 32.9°F0.5°C 71% Calm Calm -- 30.12 in1020.0 mb - 0.00 in0.0 mm 0.00 in0.0 mm
05:12 PM 41.2°F5.1°C 32.9°F0.5°C 72% Calm Calm -- 30.12 in1020.0 mb - 0.00 in0.0 mm 0.00 in0.0 mm
05:17 PM 40.6°F4.8°C 32.4°F0.2°C 72% Calm Calm -- 30.12 in1020.0 mb - 0.00 in0.0 mm 0.00 in0.0 mm
05:22 PM 40.5°F4.7°C 32.5°F0.3°C 73% Calm Calm -- 30.12 in1020.0 mb - 0.00 in0.0 mm 0.00 in0.0 mm
05:27 PM 40.3°F4.6°C 32.4°F0.2°C 73% Calm Calm -- 30.12 in1020.0 mb - 0.00 in0.0 mm 0.00 in0.0 mm
05:32 PM 40.3°F4.6°C 32.7°F0.4°C 74% Calm Calm -- 30.12 in1020.0 mb - 0.00 in0.0 mm 0.00 in0.0 mm
05:37 PM 40.3°F4.6°C 32.7°F0.4°C 74% Calm Calm 0.9 mph1.4 kmh 30.12 in1020.0 mb - 0.00 in0.0 mm 0.00 in0.0 mm
05:42 PM 39.9°F4.4°C 32.7°F0.4°C 75% Calm Calm -- 30.12 in1020.0 mb - 0.00 in0.0 mm 0.00 in0.0 mm
05:47 PM 39.9°F4.4°C 32.7°F0.4°C 75% Calm Calm -- 30.12 in1020.0 mb - 0.00 in0.0 mm 0.00 in0.0 mm
05:52 PM 39.9°F4.4°C 32.7°F0.4°C 75% Calm Calm -- 30.12 in1020.0 mb - 0.00 in0.0 mm 0.00 in0.0 mm
05:57 PM 39.9°F4.4°C 32.7°F0.4°C 75% Calm Calm -- 30.12 in1020.0 mb - 0.00 in0.0 mm 0.00 in0.0 mm
06:02 PM 40.1°F4.5°C 32.9°F0.5°C 75% Calm Calm -- 30.12 in1020.0 mb - 0.00 in0.0 mm 0.00 in0.0 mm
06:07 PM 40.3°F4.6°C 33.3°F0.7°C 76% Calm Calm -- 30.12 in1020.0 mb - 0.00 in0.0 mm 0.00 in0.0 mm
06:12 PM 40.3°F4.6°C 33.3°F0.7°C 76% Calm Calm -- 30.12 in1020.0 mb - 0.00 in0.0 mm 0.00 in0.0 mm
06:17 PM 40.5°F4.7°C 33.4°F0.8°C 76% Calm Calm -- 30.12 in1020.0 mb - 0.00 in0.0 mm 0.00 in0.0 mm
06:22 PM 40.5°F4.7°C 33.4°F0.8°C 76% Calm Calm 0.9 mph1.4 kmh 30.12 in1020.0 mb - 0.00 in0.0 mm 0.00 in0.0 mm
06:27 PM 40.6°F4.8°C 33.6°F0.9°C 76% Calm Calm -- 30.12 in1020.0 mb - 0.00 in0.0 mm 0.00 in0.0 mm
06:32 PM 40.6°F4.8°C 33.6°F0.9°C 76% Calm Calm -- 30.11 in1019.6 mb - 0.00 in0.0 mm 0.00 in0.0 mm
06:37 PM 40.8°F4.9°C 33.8°F1.0°C 76% Calm Calm -- 30.11 in1019.6 mb - 0.00 in0.0 mm 0.00 in0.0 mm
06:42 PM 41.0°F5.0°C 33.6°F0.9°C 75% Calm Calm -- 30.11 in1019.6 mb - 0.00 in0.0 mm 0.00 in0.0 mm
06:47 PM 41.2°F5.1°C 33.8°F1.0°C 75% Calm Calm -- 30.11 in1019.6 mb - 0.00 in0.0 mm 0.00 in0.0 mm
06:52 PM 41.2°F5.1°C 33.8°F1.0°C 75% Calm Calm -- 30.12 in1020.0 mb - 0.00 in0.0 mm 0.00 in0.0 mm
06:57 PM 41.4°F5.2°C 34.0°F1.1°C 75% Calm Calm -- 30.11 in1019.6 mb - 0.00 in0.0 mm 0.00 in0.0 mm
07:02 PM 41.4°F5.2°C 34.0°F1.1°C 75% Calm Calm 2.0 mph3.2 kmh 30.11 in1019.6 mb - 0.00 in0.0 mm 0.00 in0.0 mm
07:07 PM 41.7°F5.4°C 34.3°F1.3°C 75% 0.9 mph WSW1.4 kmh WSW -- 30.11 in1019.6 mb - 0.00 in0.0 mm 0.00 in0.0 mm
07:12 PM 41.9°F5.5°C 34.5°F1.4°C 75% 0.9 mph SSW1.4 kmh SSW -- 30.11 in1019.6 mb - 0.00 in0.0 mm 0.00 in0.0 mm
07:17 PM 42.4°F5.8°C 34.7°F1.5°C 74% 0.9 mph SE1.4 kmh SE -- 30.11 in1019.6 mb - 0.00 in0.0 mm 0.00 in0.0 mm
07:22 PM 43.2°F6.2°C 35.1°F1.7°C 73% 2.0 mph SE3.2 kmh SE 0.9 mph1.4 kmh 30.11 in1019.6 mb - 0.00 in0.0 mm 0.00 in0.0 mm
07:27 PM 43.9°F6.6°C 35.1°F1.7°C 71% 2.9 mph SE4.7 kmh SE 2.0 mph3.2 kmh 30.11 in1019.6 mb - 0.00 in0.0 mm 0.00 in0.0 mm
07:32 PM 44.2°F6.8°C 35.1°F1.7°C 70% 2.0 mph SSW3.2 kmh SSW 2.9 mph4.7 kmh 30.11 in1019.6 mb - 0.00 in0.0 mm 0.00 in0.0 mm
07:37 PM 44.8°F7.1°C 35.2°F1.8°C 69% 2.9 mph SSE4.7 kmh SSE 0.9 mph1.4 kmh 30.11 in1019.6 mb - 0.00 in0.0 mm 0.00 in0.0 mm
07:42 PM 45.0°F7.2°C 35.4°F1.9°C 69% 2.9 mph SSE4.7 kmh SSE 4.0 mph6.4 kmh 30.11 in1019.6 mb - 0.00 in0.0 mm 0.00 in0.0 mm
07:47 PM 45.1°F7.3°C 35.2°F1.8°C 68% 4.0 mph SSE6.4 kmh SSE 8.1 mph13.0 kmh 30.10 in1019.3 mb - 0.00 in0.0 mm 0.00 in0.0 mm
07:52 PM 45.3°F7.4°C 35.4°F1.9°C 68% 4.0 mph SE6.4 kmh SE 10.1 mph16.3 kmh 30.10 in1019.3 mb - 0.00 in0.0 mm 0.00 in0.0 mm
07:57 PM 45.5°F7.5°C 36.0°F2.2°C 69% 4.9 mph N7.9 kmh N -- 30.11 in1019.6 mb - 0.00 in0.0 mm 0.00 in0.0 mm
08:02 PM 45.7°F7.6°C 35.8°F2.1°C 68% 4.0 mph SE6.4 kmh SE -- 30.10 in1019.3 mb - 0.00 in0.0 mm 0.00 in0.0 mm
08:07 PM 45.7°F7.6°C 36.1°F2.3°C 69% 2.9 mph SE4.7 kmh SE 2.9 mph4.7 kmh 30.10 in1019.3 mb - 0.00 in0.0 mm 0.00 in0.0 mm
08:12 PM 45.7°F7.6°C 36.1°F2.3°C 69% 4.0 mph SE6.4 kmh SE 2.0 mph3.2 kmh 30.10 in1019.3 mb - 0.00 in0.0 mm 0.00 in0.0 mm
08:17 PM 45.7°F7.6°C 36.1°F2.3°C 69% 4.9 mph SSE7.9 kmh SSE 8.9 mph14.3 kmh 30.11 in1019.6 mb - 0.00 in0.0 mm 0.00 in0.0 mm
08:22 PM 45.9°F7.7°C 36.7°F2.6°C 70% 4.9 mph E7.9 kmh E -- 30.10 in1019.3 mb - 0.00 in0.0 mm 0.00 in0.0 mm
08:27 PM 45.9°F7.7°C 36.7°F2.6°C 70% 4.0 mph SSE6.4 kmh SSE 4.0 mph6.4 kmh 30.10 in1019.3 mb - 0.00 in0.0 mm 0.00 in0.0 mm
08:32 PM 45.9°F7.7°C 37.0°F2.8°C 71% 4.0 mph NE6.4 kmh NE 2.9 mph4.7 kmh 30.10 in1019.3 mb - 0.00 in0.0 mm 0.00 in0.0 mm
08:37 PM 45.9°F7.7°C 37.0°F2.8°C 71% 4.0 mph SE6.4 kmh SE 4.9 mph7.9 kmh 30.10 in1019.3 mb - 0.00 in0.0 mm 0.00 in0.0 mm
08:42 PM 45.9°F7.7°C 37.4°F3.0°C 72% 2.9 mph S4.7 kmh S 8.9 mph14.3 kmh 30.10 in1019.3 mb - 0.00 in0.0 mm 0.00 in0.0 mm
08:47 PM 45.9°F7.7°C 37.8°F3.2°C 73% 2.9 mph E4.7 kmh E 8.1 mph13.0 kmh 30.10 in1019.3 mb - 0.00 in0.0 mm 0.00 in0.0 mm
08:52 PM 45.9°F7.7°C 37.8°F3.2°C 73% 4.0 mph SSE6.4 kmh SSE 4.9 mph7.9 kmh 30.10 in1019.3 mb - 0.00 in0.0 mm 0.00 in0.0 mm
08:57 PM 45.9°F7.7°C 38.1°F3.4°C 74% 4.0 mph SSE6.4 kmh SSE 2.0 mph3.2 kmh 30.09 in1019.0 mb - 0.00 in0.0 mm 0.00 in0.0 mm
09:02 PM 46.0°F7.8°C 38.5°F3.6°C 75% 4.0 mph SE6.4 kmh SE 8.1 mph13.0 kmh 30.09 in1019.0 mb - 0.00 in0.0 mm 0.00 in0.0 mm
09:07 PM 45.9°F7.7°C 38.3°F3.5°C 75% 4.9 mph SSE7.9 kmh SSE 0.9 mph1.4 kmh 30.09 in1019.0 mb - 0.00 in0.0 mm 0.00 in0.0 mm
09:12 PM 45.9°F7.7°C 39.0°F3.9°C 77% 4.9 mph SSE7.9 kmh SSE 11.0 mph17.7 kmh 30.09 in1019.0 mb - 0.00 in0.0 mm 0.00 in0.0 mm
09:17 PM 45.7°F7.6°C 39.2°F4.0°C 78% 4.9 mph SE7.9 kmh SE 10.1 mph16.3 kmh 30.09 in1019.0 mb - 0.00 in0.0 mm 0.00 in0.0 mm
09:22 PM 45.5°F7.5°C 39.4°F4.1°C 79% 4.9 mph E7.9 kmh E 8.1 mph13.0 kmh 30.09 in1019.0 mb - 0.00 in0.0 mm 0.01 in0.3 mm
09:27 PM 45.1°F7.3°C 39.4°F4.1°C 80% 6.0 mph SE9.7 kmh SE 4.9 mph7.9 kmh 30.09 in1019.0 mb - 0.06 in1.5 mm 0.01 in0.3 mm
09:32 PM 45.0°F7.2°C 39.6°F4.2°C 81% 4.9 mph ESE7.9 kmh ESE 8.1 mph13.0 kmh 30.09 in1019.0 mb - 0.06 in1.5 mm 0.02 in0.5 mm
09:37 PM 44.6°F7.0°C 39.4°F4.1°C 82% 6.0 mph SSE9.7 kmh SSE 8.1 mph13.0 kmh 30.08 in1018.6 mb - 0.05 in1.3 mm 0.02 in0.5 mm
09:42 PM 44.4°F6.9°C 39.6°F4.2°C 83% 4.9 mph SSE7.9 kmh SSE 2.9 mph4.7 kmh 30.08 in1018.6 mb - 0.05 in1.3 mm 0.02 in0.5 mm
09:47 PM 44.2°F6.8°C 39.4°F4.1°C 83% 4.0 mph SE6.4 kmh SE -- 30.08 in1018.6 mb - 0.04 in1.0 mm 0.02 in0.5 mm
09:52 PM 44.1°F6.7°C 39.6°F4.2°C 84% 2.9 mph ESE4.7 kmh ESE 4.9 mph7.9 kmh 30.08 in1018.6 mb - 0.04 in1.0 mm 0.03 in0.8 mm
09:57 PM 43.9°F6.6°C 39.4°F4.1°C 84% 4.0 mph SE6.4 kmh SE 4.9 mph7.9 kmh 30.08 in1018.6 mb - 0.04 in1.0 mm 0.03 in0.8 mm
10:02 PM 43.9°F6.6°C 39.4°F4.1°C 84% 4.9 mph SW7.9 kmh SW -- 30.08 in1018.6 mb - 0.04 in1.0 mm 0.03 in0.8 mm
10:07 PM 43.9°F6.6°C 39.7°F4.3°C 85% 2.9 mph SE4.7 kmh SE 2.9 mph4.7 kmh 30.08 in1018.6 mb - 0.04 in1.0 mm 0.04 in1.0 mm
10:12 PM 43.7°F6.5°C 39.6°F4.2°C 85% 2.9 mph E4.7 kmh E 6.0 mph9.7 kmh 30.08 in1018.6 mb - 0.06 in1.5 mm 0.04 in1.0 mm
10:17 PM 43.5°F6.4°C 39.4°F4.1°C 85% 4.0 mph ENE6.4 kmh ENE 2.0 mph3.2 kmh 30.08 in1018.6 mb - 0.07 in1.8 mm 0.05 in1.3 mm
10:22 PM 43.3°F6.3°C 39.4°F4.1°C 86% 2.9 mph SE4.7 kmh SE -- 30.08 in1018.6 mb - 0.08 in2.0 mm 0.06 in1.5 mm
10:27 PM 43.3°F6.3°C 39.4°F4.1°C 86% 2.9 mph SSE4.7 kmh SSE -- 30.08 in1018.6 mb - 0.08 in2.0 mm 0.06 in1.5 mm
10:32 PM 43.3°F6.3°C 39.7°F4.3°C 87% 2.0 mph E3.2 kmh E 2.0 mph3.2 kmh 30.08 in1018.6 mb - 0.06 in1.5 mm 0.06 in1.5 mm
10:37 PM 43.2°F6.2°C 39.6°F4.2°C 87% 2.0 mph S3.2 kmh S 6.0 mph9.7 kmh 30.08 in1018.6 mb - 0.08 in2.0 mm 0.07 in1.8 mm
10:42 PM 43.2°F6.2°C 39.6°F4.2°C 87% 2.9 mph SE4.7 kmh SE -- 30.08 in1018.6 mb - 0.12 in3.0 mm 0.08 in2.0 mm
10:47 PM 43.0°F6.1°C 39.4°F4.1°C 87% 2.9 mph SE4.7 kmh SE -- 30.09 in1019.0 mb - 0.11 in2.8 mm 0.09 in2.3 mm
10:52 PM 43.0°F6.1°C 39.7°F4.3°C 88% 2.0 mph ESE3.2 kmh ESE 0.9 mph1.4 kmh 30.08 in1018.6 mb - 0.08 in2.0 mm 0.10 in2.5 mm
10:57 PM 42.6°F5.9°C 39.4°F4.1°C 88% 2.0 mph SSE3.2 kmh SSE 4.0 mph6.4 kmh 30.08 in1018.6 mb - 0.09 in2.3 mm 0.10 in2.5 mm
11:02 PM 42.6°F5.9°C 39.4°F4.1°C 88% 0.9 mph WSW1.4 kmh WSW -- 30.09 in1019.0 mb - 0.07 in1.8 mm 0.11 in2.8 mm
11:07 PM 42.4°F5.8°C 39.4°F4.1°C 89% 0.9 mph E1.4 kmh E 4.9 mph7.9 kmh 30.08 in1018.6 mb - 0.13 in3.3 mm 0.13 in3.3 mm
11:12 PM 42.4°F5.8°C 39.4°F4.1°C 89% 2.0 mph E3.2 kmh E -- 30.08 in1018.6 mb - 0.14 in3.6 mm 0.13 in3.3 mm
11:17 PM 42.3°F5.7°C 39.2°F4.0°C 89% 2.9 mph NE4.7 kmh NE -- 30.09 in1019.0 mb - 0.06 in1.5 mm 0.14 in3.6 mm
11:22 PM 42.3°F5.7°C 39.2°F4.0°C 89% 2.9 mph SE4.7 kmh SE -- 30.08 in1018.6 mb - 0.04 in1.0 mm 0.14 in3.6 mm
11:27 PM 42.3°F5.7°C 39.2°F4.0°C 89% 2.0 mph SE3.2 kmh SE 4.9 mph7.9 kmh 30.08 in1018.6 mb - 0.00 in0.0 mm 0.14 in3.6 mm
11:32 PM 42.3°F5.7°C 39.2°F4.0°C 89% 2.9 mph ESE4.7 kmh ESE 0.9 mph1.4 kmh 30.09 in1019.0 mb - 0.00 in0.0 mm 0.14 in3.6 mm
11:37 PM 42.3°F5.7°C 39.2°F4.0°C 89% 4.0 mph SE6.4 kmh SE 4.9 mph7.9 kmh 30.08 in1018.6 mb - 0.00 in0.0 mm 0.14 in3.6 mm
11:42 PM 42.3°F5.7°C 39.2°F4.0°C 89% 4.9 mph SSE7.9 kmh SSE 4.9 mph7.9 kmh 30.08 in1018.6 mb - 0.00 in0.0 mm 0.14 in3.6 mm
11:47 PM 42.4°F5.8°C 39.2°F4.0°C 88% 6.0 mph ESE9.7 kmh ESE 2.9 mph4.7 kmh 30.07 in1018.3 mb - 0.00 in0.0 mm 0.14 in3.6 mm
11:52 PM 42.4°F5.8°C 38.8°F3.8°C 87% 4.9 mph SSE7.9 kmh SSE 6.9 mph11.1 kmh 30.07 in1018.3 mb - 0.00 in0.0 mm 0.14 in3.6 mm
11:57 PM 42.4°F5.8°C 38.8°F3.8°C 87% 6.0 mph SW9.7 kmh SW 4.0 mph6.4 kmh 30.07 in1018.3 mb - 0.00 in0.0 mm 0.14 in3.6 mm